createdAt,value
2019-03-23T00:00:46.998Z,45.00
2019-03-23T00:03:14.286Z,35.80
2019-03-23T00:05:41.704Z,53.78
2019-03-23T00:08:08.977Z,34.60
2019-03-23T00:10:36.267Z,42.27
2019-03-23T00:13:03.817Z,33.38
2019-03-23T00:15:31.101Z,36.95
2019-03-23T00:17:58.392Z,39.90
2019-03-23T00:20:25.670Z,44.18
2019-03-23T00:22:52.955Z,36.88
2019-03-23T00:25:20.236Z,26.82
2019-03-23T00:27:47.536Z,36.48
2019-03-23T00:30:14.829Z,40.45
2019-03-23T00:32:42.202Z,32.83
2019-03-23T00:35:10.160Z,41.80
2019-03-23T00:37:37.485Z,40.12
2019-03-23T00:40:06.185Z,38.33
2019-03-23T00:42:39.141Z,33.18
2019-03-23T00:45:07.744Z,42.30
2019-03-23T00:47:35.016Z,41.23
2019-03-23T00:50:02.301Z,48.70
2019-03-23T00:52:29.665Z,43.65
2019-03-23T00:54:56.970Z,41.53
2019-03-23T00:57:24.264Z,39.10
2019-03-23T00:59:51.522Z,36.53
2019-03-23T01:02:18.804Z,41.50
2019-03-23T01:04:46.090Z,36.28
2019-03-23T01:07:13.425Z,35.63
2019-03-23T01:09:40.715Z,38.13
2019-03-23T01:12:07.975Z,45.88
2019-03-23T01:14:35.267Z,43.48
2019-03-23T01:17:02.557Z,37.95
2019-03-23T01:19:29.835Z,37.63
2019-03-23T01:21:57.109Z,37.42
2019-03-23T01:24:24.390Z,48.55
2019-03-23T01:26:51.654Z,54.18
2019-03-23T01:29:18.938Z,51.83
2019-03-23T01:31:46.261Z,52.05
2019-03-23T01:34:13.557Z,40.17
2019-03-23T01:36:40.870Z,51.53
2019-03-23T01:39:08.163Z,61.08
2019-03-23T01:41:37.453Z,42.33
2019-03-23T01:44:07.745Z,42.43
2019-03-23T01:46:35.065Z,35.60
2019-03-23T01:49:02.330Z,42.43
2019-03-23T01:51:29.630Z,44.67
2019-03-23T01:53:56.935Z,47.15
2019-03-23T01:56:24.313Z,53.50
2019-03-23T01:58:51.604Z,38.95
2019-03-23T02:01:19.075Z,42.98
2019-03-23T02:03:46.438Z,41.75
2019-03-23T02:06:13.763Z,47.03
2019-03-23T02:08:41.051Z,49.55
2019-03-23T02:11:08.452Z,46.13
2019-03-23T02:13:35.706Z,57.30
2019-03-23T02:16:02.973Z,37.53
2019-03-23T02:18:30.562Z,31.00
2019-03-23T02:20:57.885Z,36.42
2019-03-23T02:23:25.156Z,34.35
2019-03-23T02:25:52.509Z,28.07
2019-03-23T02:28:19.890Z,30.10
2019-03-23T02:30:47.166Z,22.85
2019-03-23T02:33:14.431Z,26.12
2019-03-23T02:35:41.719Z,36.65
2019-03-23T02:38:08.989Z,32.45
2019-03-23T02:40:36.279Z,31.60
2019-03-23T02:43:03.617Z,36.70
2019-03-23T02:45:30.894Z,24.90
2019-03-23T02:47:59.627Z,41.30
2019-03-23T02:50:27.012Z,49.38
2019-03-23T02:52:54.351Z,34.58
2019-03-23T02:55:21.652Z,34.43
2019-03-23T02:57:48.922Z,28.23
2019-03-23T03:00:16.264Z,40.80
2019-03-23T03:02:43.666Z,31.00
2019-03-23T03:05:11.343Z,36.03
2019-03-23T03:07:42.673Z,24.47
2019-03-23T03:10:09.173Z,37.30
2019-03-23T03:12:36.445Z,32.95
2019-03-23T03:15:04.939Z,33.67
2019-03-23T03:17:32.231Z,25.17
2019-03-23T03:19:59.503Z,36.95
2019-03-23T03:22:26.792Z,29.52
2019-03-23T03:24:54.495Z,25.75
2019-03-23T03:27:21.961Z,26.40
2019-03-23T03:29:49.275Z,26.00
2019-03-23T03:32:16.550Z,24.40
2019-03-23T03:34:43.827Z,26.95
2019-03-23T03:37:11.140Z,24.32
2019-03-23T03:39:38.494Z,22.82
2019-03-23T03:42:05.860Z,23.27
2019-03-23T03:44:33.136Z,27.80
2019-03-23T03:47:00.427Z,26.90
2019-03-23T03:49:27.841Z,38.95
2019-03-23T03:51:55.101Z,46.58
2019-03-23T03:54:22.386Z,49.55
2019-03-23T03:56:49.669Z,62.48
2019-03-23T03:59:16.969Z,55.75
2019-03-23T04:01:44.231Z,55.08
2019-03-23T04:04:11.510Z,47.03
2019-03-23T04:06:38.781Z,45.15
2019-03-23T04:09:06.549Z,52.62
2019-03-23T04:11:33.839Z,62.17
2019-03-23T04:14:01.275Z,58.45
2019-03-23T04:16:28.551Z,45.85
2019-03-23T04:18:55.918Z,52.33
2019-03-23T04:21:23.296Z,44.35
2019-03-23T04:23:50.638Z,54.95
2019-03-23T04:26:17.926Z,39.13
2019-03-23T04:28:45.211Z,48.95
2019-03-23T04:31:12.746Z,49.63
2019-03-23T04:33:40.287Z,37.25
2019-03-23T04:36:07.727Z,56.02
2019-03-23T04:38:35.043Z,49.67
2019-03-23T04:41:02.556Z,55.90
2019-03-23T04:43:29.842Z,44.77
2019-03-23T04:45:57.129Z,43.30
2019-03-23T04:48:24.430Z,47.13
2019-03-23T04:50:51.710Z,35.75
2019-03-23T04:53:18.998Z,28.95
2019-03-23T04:55:46.323Z,31.62
2019-03-23T04:58:14.773Z,49.93
2019-03-23T05:00:42.050Z,43.30
2019-03-23T05:03:09.409Z,41.58
2019-03-23T05:05:36.890Z,42.65
2019-03-23T05:08:04.254Z,32.40
2019-03-23T05:10:31.587Z,33.30
2019-03-23T05:12:58.869Z,37.03
2019-03-23T05:15:26.148Z,34.20
2019-03-23T05:17:53.878Z,38.53
2019-03-23T05:20:25.362Z,47.67
2019-03-23T05:22:52.641Z,43.52
2019-03-23T05:25:21.479Z,46.48
2019-03-23T05:27:48.742Z,51.20
2019-03-23T05:30:16.043Z,34.80
2019-03-23T05:32:43.398Z,40.05
2019-03-23T05:35:10.673Z,35.63
2019-03-23T05:37:37.973Z,31.62
2019-03-23T05:40:06.346Z,32.20
2019-03-23T05:42:33.849Z,34.98
2019-03-23T05:45:01.117Z,31.37
2019-03-23T05:47:28.401Z,33.28
2019-03-23T05:49:55.662Z,33.73
2019-03-23T05:52:23.266Z,34.55
2019-03-23T05:54:50.547Z,39.67
2019-03-23T05:57:19.812Z,32.83
2019-03-23T05:59:46.825Z,36.70
2019-03-23T06:02:14.115Z,43.45
2019-03-23T06:04:41.409Z,38.55
2019-03-23T06:07:08.737Z,32.23
2019-03-23T06:09:36.014Z,42.20
2019-03-23T06:12:03.295Z,53.73
2019-03-23T06:14:30.585Z,48.63
2019-03-23T06:16:57.854Z,52.15
2019-03-23T06:19:25.151Z,47.03
2019-03-23T06:21:52.484Z,50.17
2019-03-23T06:24:19.974Z,41.83
2019-03-23T06:26:47.247Z,37.98
2019-03-23T06:29:14.729Z,53.68
2019-03-23T06:31:42.038Z,46.05
2019-03-23T06:34:09.331Z,46.95
2019-03-23T06:36:36.657Z,46.85
2019-03-23T06:39:05.945Z,59.50
2019-03-23T06:41:33.571Z,50.00
2019-03-23T06:44:00.890Z,52.85
2019-03-23T06:46:28.181Z,40.75
2019-03-23T06:48:55.968Z,34.30
2019-03-23T06:51:23.240Z,45.50
2019-03-23T06:53:50.534Z,55.45
2019-03-23T06:56:17.799Z,46.75
2019-03-23T06:58:45.097Z,56.90
2019-03-23T07:01:12.382Z,57.40
2019-03-23T07:03:39.658Z,50.73
2019-03-23T07:06:06.951Z,48.25
2019-03-23T07:08:34.222Z,54.83
2019-03-23T07:11:01.603Z,38.73
2019-03-23T07:13:28.890Z,56.40
2019-03-23T07:15:56.158Z,46.53
2019-03-23T07:18:23.474Z,44.35
2019-03-23T07:20:50.789Z,35.33
2019-03-23T07:23:18.085Z,41.70
2019-03-23T07:25:45.358Z,50.55
2019-03-23T07:28:12.682Z,47.40
2019-03-23T07:30:40.075Z,40.15
2019-03-23T07:33:07.342Z,38.65
2019-03-23T07:35:34.927Z,45.05
2019-03-23T07:38:02.183Z,71.00
2019-03-23T07:40:29.450Z,45.75
2019-03-23T07:42:56.747Z,48.08
2019-03-23T07:45:24.024Z,39.92
2019-03-23T07:47:51.278Z,46.20
2019-03-23T07:50:18.757Z,43.80
2019-03-23T07:52:46.044Z,50.12
2019-03-23T07:55:14.115Z,54.08
2019-03-23T07:57:41.453Z,48.55
2019-03-23T08:00:12.986Z,42.53
2019-03-23T08:02:40.473Z,40.17
2019-03-23T08:05:07.913Z,36.98
2019-03-23T08:07:35.209Z,42.13
2019-03-23T08:10:02.959Z,36.68
2019-03-23T08:12:30.254Z,39.73
2019-03-23T08:14:57.595Z,45.08
2019-03-23T08:17:24.874Z,50.30
2019-03-23T08:19:52.162Z,43.17
2019-03-23T08:22:19.433Z,41.25
2019-03-23T08:24:46.717Z,31.40
2019-03-23T08:27:13.999Z,45.83
2019-03-23T08:29:41.344Z,40.48
2019-03-23T08:32:08.638Z,46.73
2019-03-23T08:34:35.928Z,46.00
2019-03-23T08:37:03.217Z,39.15
2019-03-23T08:39:30.577Z,41.90
2019-03-23T08:41:57.854Z,35.40
2019-03-23T08:44:25.146Z,41.70
2019-03-23T08:46:52.409Z,37.25
2019-03-23T08:49:19.714Z,39.08
2019-03-23T08:51:47.031Z,35.95
2019-03-23T08:54:14.297Z,36.63
2019-03-23T08:56:41.586Z,41.25
2019-03-23T08:59:08.935Z,34.50
2019-03-23T09:01:36.285Z,32.13
2019-03-23T09:04:03.887Z,29.30
2019-03-23T09:06:31.198Z,31.15
2019-03-23T09:08:58.479Z,36.93
2019-03-23T09:11:25.894Z,35.78
2019-03-23T09:13:53.186Z,35.20
2019-03-23T09:16:20.455Z,38.83
2019-03-23T09:18:47.740Z,43.90
2019-03-23T09:21:15.051Z,29.82
2019-03-23T09:23:42.402Z,40.45
2019-03-23T09:26:09.698Z,30.57
2019-03-23T09:28:36.973Z,26.93
2019-03-23T09:31:04.263Z,27.25
2019-03-23T09:33:31.572Z,36.65
2019-03-23T09:35:58.946Z,28.87
2019-03-23T09:38:26.211Z,26.73
2019-03-23T09:40:53.517Z,25.60
2019-03-23T09:43:20.806Z,23.30
2019-03-23T09:45:48.261Z,32.73
2019-03-23T09:48:15.552Z,29.45
2019-03-23T09:50:42.826Z,23.42
2019-03-23T09:53:10.116Z,32.40
2019-03-23T09:55:37.453Z,30.48
2019-03-23T09:58:04.737Z,32.55
2019-03-23T10:00:32.007Z,34.25
2019-03-23T10:02:59.312Z,30.00
2019-03-23T10:05:26.582Z,30.45
2019-03-23T10:07:53.856Z,25.30
2019-03-23T10:10:22.274Z,23.02
2019-03-23T10:12:49.794Z,28.67
2019-03-23T10:15:17.126Z,21.80
2019-03-23T10:17:44.437Z,25.92
2019-03-23T10:20:11.793Z,38.17
2019-03-23T10:22:39.085Z,31.33
2019-03-23T10:25:06.713Z,36.08
2019-03-23T10:27:34.003Z,35.52
2019-03-23T10:30:01.309Z,31.17
2019-03-23T10:32:28.573Z,34.50
2019-03-23T10:34:55.866Z,33.48
2019-03-23T10:37:23.152Z,37.05
2019-03-23T10:39:50.417Z,45.12
2019-03-23T10:42:17.740Z,41.42
2019-03-23T10:44:45.019Z,29.65
2019-03-23T10:47:12.385Z,32.00
2019-03-23T10:49:39.666Z,31.77
2019-03-23T10:52:06.937Z,30.35
2019-03-23T10:54:34.229Z,31.95
2019-03-23T10:57:01.495Z,35.25
2019-03-23T10:59:28.819Z,34.20
2019-03-23T11:01:56.087Z,34.67
2019-03-23T11:04:23.368Z,35.08
2019-03-23T11:06:50.652Z,40.35
2019-03-23T11:09:17.956Z,44.20
2019-03-23T11:11:45.230Z,36.65
2019-03-23T11:14:12.570Z,42.53
2019-03-23T11:16:39.841Z,37.98
2019-03-23T11:19:13.392Z,40.38
2019-03-23T11:21:36.190Z,36.15
2019-03-23T11:24:03.450Z,36.05
2019-03-23T11:26:30.772Z,38.60
2019-03-23T11:28:58.075Z,33.95
2019-03-23T11:31:25.404Z,32.55
2019-03-23T11:33:52.683Z,33.15
2019-03-23T11:36:19.966Z,38.25
2019-03-23T11:38:47.253Z,27.05
2019-03-23T11:41:14.529Z,30.23
2019-03-23T11:43:41.803Z,32.40
2019-03-23T11:46:09.118Z,26.10
2019-03-23T11:48:36.386Z,37.88
2019-03-23T11:51:03.726Z,28.27
2019-03-23T11:53:30.991Z,31.87
2019-03-23T11:55:58.287Z,24.60
2019-03-23T11:58:25.584Z,30.30
2019-03-23T12:00:52.959Z,29.95
2019-03-23T12:03:20.337Z,28.73
2019-03-23T12:05:47.606Z,32.38
2019-03-23T12:08:15.010Z,27.80
2019-03-23T12:10:42.381Z,23.90
2019-03-23T12:13:09.781Z,22.62
2019-03-23T12:15:37.052Z,20.43
2019-03-23T12:18:04.403Z,14.03
2019-03-23T12:20:31.681Z,21.00
2019-03-23T12:22:58.962Z,25.32
2019-03-23T12:25:26.276Z,20.68
2019-03-23T12:30:17.098Z,14.68
2019-03-23T12:32:44.559Z,18.77
2019-03-23T12:35:11.987Z,21.85
2019-03-23T12:37:39.289Z,13.45
2019-03-23T12:40:06.746Z,23.00
2019-03-23T12:42:34.149Z,13.90
2019-03-23T12:45:01.484Z,22.25
2019-03-23T12:47:28.825Z,12.00
2019-03-23T12:49:56.259Z,15.83
2019-03-23T12:52:23.550Z,12.53
2019-03-23T12:54:50.982Z,16.20
2019-03-23T12:57:18.282Z,14.35
2019-03-23T12:59:45.649Z,13.35
2019-03-23T13:02:12.927Z,16.42
2019-03-23T13:04:40.210Z,16.73
2019-03-23T13:07:07.481Z,13.55
2019-03-23T13:09:34.831Z,13.03
2019-03-23T13:12:02.245Z,22.02
2019-03-23T13:14:29.501Z,13.72
2019-03-23T13:16:56.792Z,16.70
2019-03-23T13:19:24.609Z,15.32
2019-03-23T13:21:51.956Z,11.75
2019-03-23T13:24:19.216Z,9.83
2019-03-23T13:26:46.501Z,12.68
2019-03-23T13:29:13.770Z,13.78
2019-03-23T13:31:41.050Z,18.25
2019-03-23T13:34:08.383Z,13.38
2019-03-23T13:36:35.658Z,12.35
2019-03-23T13:39:04.309Z,7.28
2019-03-23T13:41:31.577Z,10.15
2019-03-23T13:43:58.859Z,9.50
2019-03-23T13:46:26.243Z,8.10
2019-03-23T13:48:53.647Z,6.42
2019-03-23T13:51:21.218Z,6.22
2019-03-23T13:53:48.474Z,14.60
2019-03-23T13:56:15.750Z,11.43
2019-03-23T13:58:43.011Z,10.60
2019-03-23T14:01:10.277Z,11.10
2019-03-23T14:03:37.899Z,11.12
2019-03-23T14:06:05.290Z,11.22
2019-03-23T14:08:32.566Z,11.43
2019-03-23T14:10:59.836Z,10.35
2019-03-23T14:13:27.881Z,6.62
2019-03-23T14:15:55.367Z,15.75
2019-03-23T14:18:22.624Z,9.95
2019-03-23T14:20:50.007Z,7.28
2019-03-23T14:23:17.362Z,12.25
2019-03-23T14:25:44.636Z,14.28
2019-03-23T14:28:11.910Z,13.22
2019-03-23T14:30:39.181Z,7.70
2019-03-23T14:33:06.455Z,13.62
2019-03-23T14:35:33.752Z,12.63
2019-03-23T14:38:01.159Z,10.13
2019-03-23T14:40:28.464Z,17.05
2019-03-23T14:42:55.738Z,11.63
2019-03-23T14:45:23.025Z,10.88
2019-03-23T14:47:50.306Z,7.20
2019-03-23T14:50:17.637Z,8.15
2019-03-23T14:52:44.923Z,9.30
2019-03-23T14:55:12.193Z,7.72
2019-03-23T14:57:40.507Z,6.03
2019-03-23T15:00:08.759Z,8.93
2019-03-23T15:02:36.038Z,6.33
2019-03-23T15:05:04.289Z,7.87
2019-03-23T15:07:31.557Z,5.45
2019-03-23T15:09:58.949Z,5.70
2019-03-23T15:12:26.238Z,8.75
2019-03-23T15:14:53.498Z,5.37
2019-03-23T15:17:20.786Z,8.53
2019-03-23T15:19:48.052Z,5.70
2019-03-23T15:22:15.305Z,9.20
2019-03-23T15:27:02.487Z,9.88
2019-03-23T15:29:29.956Z,14.05
2019-03-23T15:31:57.269Z,11.63
2019-03-23T15:34:24.692Z,6.12
2019-03-23T15:36:52.179Z,11.53
2019-03-23T15:39:20.382Z,10.15
2019-03-23T15:41:47.702Z,7.35
2019-03-23T15:44:14.990Z,8.20
2019-03-23T15:46:42.276Z,9.18
2019-03-23T15:49:09.621Z,7.08
2019-03-23T15:51:36.897Z,10.38
2019-03-23T15:54:04.442Z,9.55
2019-03-23T15:56:31.763Z,11.55
2019-03-23T15:58:59.031Z,9.20
2019-03-23T16:01:26.377Z,11.68
2019-03-23T16:03:53.637Z,7.70
2019-03-23T16:06:20.918Z,9.35
2019-03-23T16:08:48.215Z,10.40
2019-03-23T16:11:15.488Z,11.90
2019-03-23T16:13:42.778Z,8.73
2019-03-23T16:16:10.035Z,6.33
2019-03-23T16:18:37.312Z,8.88
2019-03-23T16:21:04.565Z,7.78
2019-03-23T16:23:31.847Z,4.97
2019-03-23T16:25:59.098Z,10.30
2019-03-23T16:28:26.388Z,14.10
2019-03-23T16:30:53.684Z,11.03
2019-03-23T16:33:20.955Z,11.35
2019-03-23T16:35:48.240Z,6.78
2019-03-23T16:38:15.547Z,10.25
2019-03-23T16:40:42.809Z,9.73
2019-03-23T16:43:10.254Z,10.35
2019-03-23T16:45:37.553Z,11.63
2019-03-23T16:48:04.829Z,12.18
2019-03-23T16:50:32.237Z,11.40
2019-03-23T16:52:59.593Z,6.28
2019-03-23T16:55:26.949Z,7.25
2019-03-23T16:57:54.215Z,11.53
2019-03-23T17:00:23.039Z,9.18
2019-03-23T17:02:50.346Z,10.05
2019-03-23T17:05:17.636Z,11.00
2019-03-23T17:07:44.899Z,8.10
2019-03-23T17:10:12.208Z,12.47
2019-03-23T17:12:39.483Z,7.58
2019-03-23T17:15:07.643Z,6.22
2019-03-23T17:17:35.936Z,9.48
2019-03-23T17:20:03.578Z,10.88
2019-03-23T17:22:30.862Z,12.98
2019-03-23T17:24:58.115Z,11.30
2019-03-23T17:27:25.438Z,11.40
2019-03-23T17:29:52.717Z,15.72
2019-03-23T17:32:20.014Z,11.40
2019-03-23T17:34:47.286Z,10.15
2019-03-23T17:37:14.610Z,9.68
2019-03-23T17:39:41.895Z,12.28
2019-03-23T17:42:09.157Z,10.78
2019-03-23T17:44:36.435Z,9.08
2019-03-23T17:47:03.758Z,14.58
2019-03-23T17:49:40.509Z,8.45
2019-03-23T17:52:09.503Z,9.03
2019-03-23T17:54:37.121Z,9.80
2019-03-23T17:57:04.435Z,8.68
2019-03-23T17:59:31.702Z,9.15
2019-03-23T18:01:58.986Z,10.30
2019-03-23T18:04:26.286Z,11.95
2019-03-23T18:06:53.628Z,12.58
2019-03-23T18:09:20.942Z,9.18
2019-03-23T18:11:48.294Z,6.58
2019-03-23T18:14:15.646Z,6.78
2019-03-23T18:16:42.905Z,4.92
2019-03-23T18:19:10.231Z,8.28
2019-03-23T18:21:37.512Z,9.03
2019-03-23T18:24:04.869Z,6.28
2019-03-23T18:26:32.141Z,10.93
2019-03-23T18:28:59.418Z,9.60
2019-03-23T18:31:26.682Z,10.80
2019-03-23T18:33:53.971Z,4.97
2019-03-23T18:36:21.426Z,7.33
2019-03-23T18:38:48.693Z,6.25
2019-03-23T18:41:15.990Z,4.97
2019-03-23T18:43:43.294Z,7.83
2019-03-23T18:46:10.589Z,10.58
2019-03-23T18:48:40.597Z,7.25
2019-03-23T18:51:08.210Z,5.62
2019-03-23T18:53:35.479Z,6.00
2019-03-23T18:56:02.754Z,8.58
2019-03-23T18:58:30.034Z,8.18
2019-03-23T19:00:57.342Z,12.25
2019-03-23T19:03:24.819Z,6.97
2019-03-23T19:05:52.098Z,10.13
2019-03-23T19:08:19.432Z,10.53
2019-03-23T19:10:46.713Z,12.47
2019-03-23T19:13:14.018Z,11.55
2019-03-23T19:15:41.350Z,18.50
2019-03-23T19:18:08.924Z,12.70
2019-03-23T19:20:36.226Z,15.95
2019-03-23T19:23:03.886Z,17.45
2019-03-23T19:25:31.190Z,11.75
2019-03-23T19:27:58.445Z,11.38
2019-03-23T19:30:25.725Z,9.08
2019-03-23T19:32:53.006Z,9.15
2019-03-23T19:35:20.291Z,15.75
2019-03-23T19:38:06.916Z,12.85
2019-03-23T19:40:34.282Z,7.35
2019-03-23T19:43:01.859Z,13.18
2019-03-23T19:45:29.242Z,13.50
2019-03-23T19:47:56.547Z,9.55
2019-03-23T19:50:23.926Z,8.38
2019-03-23T19:52:51.295Z,4.40
2019-03-23T19:55:18.594Z,13.08
2019-03-23T19:57:45.943Z,11.10
2019-03-23T20:00:13.766Z,9.33
2019-03-23T20:02:41.114Z,24.23
2019-03-23T20:05:08.373Z,17.15
2019-03-23T20:07:35.661Z,10.95
2019-03-23T20:10:03.274Z,12.80
2019-03-23T20:12:30.632Z,14.20
2019-03-23T20:14:57.896Z,17.67
2019-03-23T20:17:25.178Z,13.85
2019-03-23T20:19:52.772Z,11.93
2019-03-23T20:22:20.071Z,15.98
2019-03-23T20:24:47.354Z,11.20
2019-03-23T20:27:14.622Z,10.53
2019-03-23T20:29:41.898Z,10.45
2019-03-23T20:32:09.173Z,9.98
2019-03-23T20:34:36.505Z,15.65
2019-03-23T20:37:03.845Z,15.30
2019-03-23T20:39:31.133Z,13.85
2019-03-23T20:41:58.405Z,17.42
2019-03-23T20:44:25.716Z,12.25
2019-03-23T20:46:52.999Z,9.45
2019-03-23T20:49:20.355Z,11.63
2019-03-23T20:51:47.910Z,10.53
2019-03-23T20:54:15.256Z,8.03
2019-03-23T20:56:42.575Z,9.18
2019-03-23T20:59:09.857Z,8.88
2019-03-23T21:01:37.125Z,10.53
2019-03-23T21:04:04.427Z,9.70
2019-03-23T21:06:31.701Z,8.00
2019-03-23T21:08:58.960Z,6.95
2019-03-23T21:11:26.247Z,18.73
2019-03-23T21:13:53.625Z,8.28
2019-03-23T21:16:20.892Z,10.65
2019-03-23T21:18:48.172Z,8.45
2019-03-23T21:21:15.445Z,7.35
2019-03-23T21:23:42.809Z,11.97
2019-03-23T21:26:10.064Z,11.48
2019-03-23T21:28:37.399Z,10.00
2019-03-23T21:31:04.705Z,7.85
2019-03-23T21:33:38.470Z,5.58
2019-03-23T21:36:00.986Z,9.38
2019-03-23T21:38:28.367Z,10.03
2019-03-23T21:40:55.666Z,7.62
2019-03-23T21:43:22.930Z,7.90
2019-03-23T21:45:50.179Z,6.85
2019-03-23T21:48:17.469Z,5.80
2019-03-23T21:50:47.612Z,9.38
2019-03-23T21:53:13.781Z,8.78
2019-03-23T21:55:41.041Z,4.78
2019-03-23T21:58:08.356Z,7.62
2019-03-23T22:00:35.788Z,7.60
2019-03-23T22:03:03.235Z,7.65
2019-03-23T22:05:30.663Z,5.78
2019-03-23T22:07:57.918Z,8.30
2019-03-23T22:10:25.187Z,4.37
2019-03-23T22:12:52.478Z,4.95
2019-03-23T22:15:19.811Z,8.28
2019-03-23T22:17:47.085Z,6.62
2019-03-23T22:20:14.445Z,8.40
2019-03-23T22:22:41.737Z,7.40
2019-03-23T22:25:09.380Z,8.80
2019-03-23T22:27:36.642Z,5.67
2019-03-23T22:30:10.674Z,10.43
2019-03-23T22:32:37.953Z,7.37
2019-03-23T22:35:08.079Z,10.55
2019-03-23T22:37:35.358Z,7.22
2019-03-23T22:40:04.217Z,9.65
2019-03-23T22:42:31.476Z,7.58
2019-03-23T22:44:58.763Z,9.40
2019-03-23T22:47:26.022Z,8.40
2019-03-23T22:49:53.310Z,5.35
2019-03-23T22:52:20.585Z,7.62
2019-03-23T22:54:47.879Z,8.25
2019-03-23T22:57:15.213Z,5.78
2019-03-23T22:59:42.501Z,6.05
2019-03-23T23:02:09.760Z,7.22
2019-03-23T23:04:37.038Z,6.62
2019-03-23T23:07:04.347Z,5.70
2019-03-23T23:09:31.695Z,6.75
2019-03-23T23:11:58.973Z,6.05
2019-03-23T23:14:26.259Z,7.85
2019-03-23T23:16:53.522Z,6.10
2019-03-23T23:19:20.800Z,9.10
2019-03-23T23:21:48.083Z,4.97
2019-03-23T23:24:15.374Z,6.15
2019-03-23T23:26:42.639Z,6.37
2019-03-23T23:29:09.951Z,5.87
2019-03-23T23:31:37.246Z,3.70
2019-03-23T23:34:04.576Z,6.10
2019-03-23T23:36:31.997Z,2.80
2019-03-23T23:38:59.302Z,5.92
2019-03-23T23:41:26.577Z,6.70
2019-03-23T23:43:53.861Z,6.50
2019-03-23T23:46:21.124Z,8.23
2019-03-23T23:48:51.433Z,6.25
2019-03-23T23:51:17.382Z,4.55
2019-03-23T23:53:44.659Z,7.05
2019-03-23T23:56:11.933Z,3.72
2019-03-23T23:58:39.196Z,4.80
